Time;durP1;ratioP1;P1;durP2;ratioP2;P2;SDS_P1;SDS_P2;PMS_P1;PMS_P2;Temp;Humidity;BMP_temperature;BMP_pressure;BME280_temperature;BME280_humidity;BME280_pressure;Samples;Min_cycle;Max_cycle;Signal;HPM_P1;HPM_P2
2022/01/15 03:45:25;;;;;;;11.95;7.45;;;7.20;86.20;;;;;;5766367;24;20026;31
2022/01/15 03:47:51;;;;;;;15.45;8.27;;;7.30;86.00;;;;;;4759749;30;20052;-84
2022/01/15 03:50:18;;;;;;;12.20;7.82;;;7.20;85.80;;;;;;4762000;30;20040;-84
2022/01/15 03:52:45;;;;;;;15.45;8.32;;;7.30;85.50;;;;;;4744449;30;20032;-84
2022/01/15 03:55:13;;;;;;;11.57;7.53;;;7.30;85.30;;;;;;4728663;30;20097;-84
2022/01/15 03:57:39;;;;;;;15.77;8.02;;;7.20;85.10;;;;;;4742055;30;20024;-84
2022/01/15 04:00:09;;;;;;;14.18;8.68;;;7.30;85.20;;;;;;4727044;30;20043;-85
2022/01/15 04:02:38;;;;;;;11.85;7.20;;;7.30;85.30;;;;;;4757353;30;20045;-84
2022/01/15 04:05:04;;;;;;;15.25;8.38;;;7.30;85.00;;;;;;4733099;30;20274;-85
2022/01/15 04:07:30;;;;;;;15.43;7.50;;;7.30;84.80;;;;;;4730390;30;20035;-84
2022/01/15 04:09:55;;;;;;;13.80;8.20;;;7.20;84.50;;;;;;4744666;30;20236;-84
2022/01/15 04:12:21;;;;;;;16.90;8.27;;;7.20;84.50;;;;;;4730839;30;20348;-84
2022/01/15 04:14:47;;;;;;;15.32;7.70;;;7.20;84.50;;;;;;4747380;30;20081;-84
2022/01/15 04:17:13;;;;;;;15.25;8.77;;;7.30;84.40;;;;;;4718312;30;20064;-84
2022/01/15 04:19:40;;;;;;;13.15;7.47;;;7.20;84.50;;;;;;4729795;30;20317;-84
2022/01/15 04:22:06;;;;;;;13.98;7.55;;;7.30;84.30;;;;;;4761657;30;20050;-85
2022/01/15 04:24:32;;;;;;;14.98;8.10;;;7.20;84.00;;;;;;4732819;30;20055;-84
2022/01/15 04:26:58;;;;;;;15.63;7.38;;;7.20;84.20;;;;;;4732912;30;20032;-84
2022/01/15 04:29:24;;;;;;;13.80;8.38;;;7.20;84.10;;;;;;4732337;30;20086;-84
2022/01/15 04:31:52;;;;;;;13.63;7.35;;;7.30;84.30;;;;;;4755611;30;20036;-84
2022/01/15 04:34:27;;;;;;;12.25;7.30;;;7.30;83.80;;;;;;4755259;30;20107;-85
2022/01/15 04:37:00;;;;;;;15.43;7.55;;;7.30;83.70;;;;;;4746903;30;20064;-84
2022/01/15 04:39:26;;;;;;;13.55;7.55;;;7.30;83.50;;;;;;4761592;30;20039;-84
2022/01/15 04:41:52;;;;;;;13.82;7.85;;;7.20;83.30;;;;;;4732318;30;20040;-84
2022/01/15 04:44:17;;;;;;;14.00;7.45;;;7.20;83.50;;;;;;4732454;30;20047;-84
2022/01/15 04:46:43;;;;;;;16.13;7.95;;;7.30;83.50;;;;;;4732013;30;20362;-85
2022/01/15 04:49:09;;;;;;;12.75;7.00;;;7.30;83.20;;;;;;4746851;30;20395;-84
2022/01/15 04:51:35;;;;;;;11.38;6.63;;;7.30;83.00;;;;;;4732331;30;20036;-84
2022/01/15 04:54:02;;;;;;;14.95;7.65;;;7.40;82.80;;;;;;4732474;30;20036;-84
2022/01/15 04:56:28;;;;;;;11.70;6.88;;;7.40;82.60;;;;;;4732399;30;20036;-84
2022/01/15 04:58:54;;;;;;;14.30;6.88;;;7.30;82.50;;;;;;4744179;30;20221;-84
2022/01/15 05:01:19;;;;;;;15.77;7.18;;;7.30;82.50;;;;;;4746559;30;20051;-84
2022/01/15 05:03:45;;;;;;;14.65;7.18;;;7.30;82.70;;;;;;4746935;30;20047;-84
2022/01/15 05:06:11;;;;;;;14.02;7.10;;;7.30;83.00;;;;;;4732114;30;20040;-84
2022/01/15 05:08:37;;;;;;;12.50;6.88;;;7.40;83.10;;;;;;4746624;30;20028;-84
2022/01/15 05:11:13;;;;;;;15.55;6.97;;;7.30;83.00;;;;;;4742648;30;20041;-84
2022/01/15 05:13:39;;;;;;;12.45;7.40;;;7.30;83.10;;;;;;4746720;30;20067;-84
2022/01/15 05:16:06;;;;;;;12.93;7.53;;;7.30;83.30;;;;;;4731980;30;20036;-84
2022/01/15 05:18:32;;;;;;;13.05;7.40;;;7.30;83.30;;;;;;4746740;30;20290;-84
2022/01/15 05:20:57;;;;;;;13.13;7.15;;;7.30;83.40;;;;;;4731890;30;20348;-84
2022/01/15 05:23:23;;;;;;;12.35;6.72;;;7.30;83.30;;;;;;4731831;30;20040;-85
2022/01/15 05:25:49;;;;;;;13.02;7.10;;;7.30;83.80;;;;;;4761279;30;20040;-84
2022/01/15 05:28:15;;;;;;;13.57;7.88;;;7.30;83.80;;;;;;4746648;30;20135;-85
2022/01/15 05:30:41;;;;;;;15.00;8.32;;;7.30;83.90;;;;;;4746420;30;20089;-84
2022/01/15 05:33:06;;;;;;;16.13;8.32;;;7.20;83.80;;;;;;4746275;30;20060;-84
2022/01/15 05:35:32;;;;;;;12.75;7.60;;;7.20;83.80;;;;;;4746410;30;20107;-84
2022/01/15 05:37:59;;;;;;;15.68;8.20;;;7.30;83.80;;;;;;4731883;30;20064;-84
2022/01/15 05:40:26;;;;;;;12.27;7.18;;;7.30;83.80;;;;;;4761088;30;20059;-85
2022/01/15 05:42:53;;;;;;;16.30;7.30;;;7.20;83.60;;;;;;4731648;30;20047;-84
2022/01/15 05:45:21;;;;;;;15.98;7.05;;;7.30;83.70;;;;;;4746334;30;20051;-84
2022/01/15 05:47:48;;;;;;;11.35;6.95;;;7.20;83.70;;;;;;4746033;30;20131;-84
2022/01/15 05:50:14;;;;;;;16.30;8.05;;;7.30;83.70;;;;;;4761050;30;20107;-84
2022/01/15 05:52:40;;;;;;;12.27;7.53;;;7.30;83.60;;;;;;4746233;30;20351;-83
2022/01/15 05:55:06;;;;;;;14.00;7.57;;;7.30;83.20;;;;;;4746281;30;20032;-83
2022/01/15 05:57:35;;;;;;;17.15;7.95;;;7.30;83.00;;;;;;4746125;30;20038;-83
2022/01/15 06:00:03;;;;;;;13.02;7.13;;;7.20;83.00;;;;;;4731735;30;20051;-83
2022/01/15 06:02:39;;;;;;;13.27;7.43;;;7.30;83.00;;;;;;4747757;30;20040;-83
2022/01/15 06:05:05;;;;;;;11.68;7.13;;;7.30;82.90;;;;;;4743534;30;20037;-84
2022/01/15 06:07:31;;;;;;;15.65;7.35;;;7.30;82.50;;;;;;4745939;30;20240;-84
2022/01/15 06:09:57;;;;;;;12.48;6.47;;;7.30;82.50;;;;;;4744020;30;20040;-84
2022/01/15 06:12:29;;;;;;;12.70;7.00;;;7.30;82.20;;;;;;4744134;30;20047;-84
2022/01/15 06:14:55;;;;;;;13.48;7.82;;;7.30;82.10;;;;;;4746084;30;20032;-83
2022/01/15 06:17:20;;;;;;;16.25;7.95;;;7.30;82.10;;;;;;4731464;30;20043;-83
2022/01/15 06:19:46;;;;;;;11.75;7.68;;;7.30;81.80;;;;;;4731516;30;20101;-82
2022/01/15 06:22:12;;;;;;;13.38;6.90;;;7.40;81.80;;;;;;4731552;30;20036;-83
2022/01/15 06:24:38;;;;;;;14.60;8.15;;;7.40;81.60;;;;;;4745970;30;20110;-83
2022/01/15 06:27:04;;;;;;;13.77;7.07;;;7.30;81.40;;;;;;4731377;30;20351;-83
2022/01/15 06:29:30;;;;;;;17.63;7.47;;;7.30;81.30;;;;;;4745941;30;20044;-84
2022/01/15 06:31:55;;;;;;;12.75;7.00;;;7.30;81.30;;;;;;4745786;30;20115;-83
2022/01/15 06:34:21;;;;;;;11.07;6.55;;;7.30;81.40;;;;;;4745211;30;20041;-83
2022/01/15 06:36:47;;;;;;;11.55;6.57;;;7.30;81.10;;;;;;4745935;30;20065;-83
2022/01/15 06:39:13;;;;;;;12.07;6.65;;;7.30;80.90;;;;;;4731350;30;20328;-83
2022/01/15 06:41:39;;;;;;;14.30;6.60;;;7.30;80.80;;;;;;4746090;30;20033;-83
2022/01/15 06:44:05;;;;;;;12.77;6.55;;;7.30;80.50;;;;;;4745915;30;20042;-83
2022/01/15 06:46:30;;;;;;;15.32;7.20;;;7.30;80.50;;;;;;4745239;30;20118;-83
2022/01/15 06:48:56;;;;;;;12.68;6.30;;;7.30;80.20;;;;;;4730573;30;20036;-83
2022/01/15 06:51:24;;;;;;;18.33;6.50;;;7.30;80.40;;;;;;4745377;30;20340;-84
2022/01/15 06:53:50;;;;;;;12.70;6.78;;;7.30;80.20;;;;;;4745337;30;20043;-82
2022/01/15 06:56:15;;;;;;;9.95;5.85;;;7.30;80.10;;;;;;4746394;30;20131;-84
2022/01/15 06:58:42;;;;;;;13.48;6.47;;;7.30;79.90;;;;;;4748398;30;20067;-83
2022/01/15 07:01:08;;;;;;;13.77;6.55;;;7.30;79.70;;;;;;4733901;30;20088;-85
2022/01/15 07:03:34;;;;;;;10.70;5.82;;;7.30;79.70;;;;;;4733731;30;20055;-83
2022/01/15 07:06:00;;;;;;;13.52;6.10;;;7.40;79.50;;;;;;4748381;30;20399;-83
2022/01/15 07:08:26;;;;;;;12.05;5.25;;;7.40;79.40;;;;;;4747968;30;20043;-84
2022/01/15 07:10:52;;;;;;;12.13;6.50;;;7.40;79.10;;;;;;4733526;30;20075;-84
2022/01/15 07:13:20;;;;;;;16.30;5.93;;;7.40;79.10;;;;;;4748414;30;20059;-85
2022/01/15 07:15:47;;;;;;;16.27;6.13;;;7.40;79.00;;;;;;4740137;30;20269;-84
2022/01/15 07:18:13;;;;;;;11.40;6.10;;;7.40;79.10;;;;;;4748008;30;20042;-84
2022/01/15 07:20:39;;;;;;;10.23;6.15;;;7.40;78.70;;;;;;4748043;30;20326;-84
2022/01/15 07:23:05;;;;;;;12.25;5.65;;;7.40;79.00;;;;;;4748167;30;20328;-84
2022/01/15 07:25:35;;;;;;;10.10;5.72;;;7.40;78.80;;;;;;4731066;30;20379;-84
2022/01/15 07:28:01;;;;;;;12.20;6.55;;;7.50;78.70;;;;;;4740632;30;20263;-84
2022/01/15 07:30:27;;;;;;;13.27;6.57;;;7.40;78.50;;;;;;4745182;30;20233;-84
2022/01/15 07:32:53;;;;;;;13.40;6.55;;;7.40;79.30;;;;;;4745609;30;20043;-84
2022/01/15 07:35:19;;;;;;;14.02;6.65;;;7.40;78.60;;;;;;4746439;30;20057;-84
2022/01/15 07:37:45;;;;;;;15.80;7.25;;;7.50;78.50;;;;;;4747608;30;20320;-84
2022/01/15 07:40:12;;;;;;;13.63;7.07;;;7.50;78.40;;;;;;4755541;30;20032;-84
2022/01/15 07:42:39;;;;;;;16.00;7.07;;;7.50;78.30;;;;;;4757690;30;20039;-84
2022/01/15 07:45:07;;;;;;;;;;;7.50;78.20;;;;;;4745108;30;20333;-84
2022/01/15 07:47:33;;;;;;;14.85;6.75;;;7.50;78.10;;;;;;4753016;30;19918;-85
2022/01/15 07:49:58;;;;;;;12.35;6.70;;;7.50;78.20;;;;;;4759670;30;20229;-85
2022/01/15 07:52:25;;;;;;;12.48;6.40;;;7.50;78.20;;;;;;4732592;30;20044;-85
2022/01/15 07:54:51;;;;;;;16.60;6.95;;;7.50;78.30;;;;;;4743184;30;20040;-85
2022/01/15 07:57:16;;;;;;;15.55;7.38;;;7.60;78.50;;;;;;4755954;30;20037;-85
2022/01/15 07:59:42;;;;;;;10.68;6.28;;;7.50;78.00;;;;;;4744266;30;20032;-85
2022/01/15 08:02:08;;;;;;;11.13;6.50;;;7.60;77.80;;;;;;4745306;30;20315;-85
2022/01/15 08:04:36;;;;;;;16.67;7.05;;;7.70;77.80;;;;;;4707036;30;20081;-85
2022/01/15 08:07:02;;;;;;;18.20;7.15;;;7.70;77.50;;;;;;4703039;30;20121;-85
2022/01/15 08:09:28;;;;;;;18.05;6.85;;;7.80;77.10;;;;;;4694620;30;20050;-85
2022/01/15 08:11:54;;;;;;;14.60;6.63;;;7.80;77.10;;;;;;4679751;30;20034;-85
2022/01/15 08:14:19;;;;;;;17.77;6.97;;;7.90;76.60;;;;;;4708672;30;20096;-85
2022/01/15 08:16:45;;;;;;;13.80;7.38;;;8.00;76.40;;;;;;4694327;30;20057;-85
2022/01/15 08:19:11;;;;;;;12.70;6.13;;;8.00;76.10;;;;;;4694231;30;20373;-84
2022/01/15 08:21:37;;;;;;;11.90;6.68;;;8.10;76.00;;;;;;4694126;30;20120;-84
2022/01/15 08:24:02;;;;;;;11.50;5.60;;;8.10;76.00;;;;;;4680222;30;20425;-84
2022/01/15 08:26:28;;;;;;;9.65;6.00;;;8.10;74.60;;;;;;4679831;30;20236;-84
2022/01/15 08:28:54;;;;;;;13.20;6.57;;;8.20;75.20;;;;;;4679851;30;20045;-84
2022/01/15 08:31:20;;;;;;;10.40;5.60;;;8.20;74.80;;;;;;4694113;30;20277;-84
2022/01/15 08:33:46;;;;;;;14.63;6.78;;;8.20;74.50;;;;;;4694052;30;20029;-84
2022/01/15 08:36:12;;;;;;;14.07;6.25;;;8.20;73.90;;;;;;4709194;30;21244;-84
2022/01/15 08:38:38;;;;;;;23.88;6.90;;;8.20;73.90;;;;;;4732898;30;20047;-84
2022/01/15 08:41:03;;;;;;;15.45;6.40;;;8.20;73.60;;;;;;4736899;30;20043;-84
2022/01/15 08:43:29;;;;;;;11.27;6.22;;;8.20;73.80;;;;;;4734480;30;20099;-84
2022/01/15 08:45:55;;;;;;;13.38;6.13;;;8.30;73.90;;;;;;4746887;30;20083;-85
2022/01/15 08:48:22;;;;;;;11.82;6.13;;;8.30;73.30;;;;;;4727585;30;20050;-84
2022/01/15 08:50:48;;;;;;;10.65;5.32;;;8.30;73.20;;;;;;4746627;30;20044;-84
2022/01/15 08:53:16;;;;;;;11.82;5.75;;;8.40;73.00;;;;;;4738452;30;20037;-85
2022/01/15 08:55:43;;;;;;;11.88;5.80;;;8.40;72.90;;;;;;4750760;30;20028;-84
2022/01/15 08:58:09;;;;;;;12.18;5.97;;;8.40;72.40;;;;;;4761417;30;20063;-84
2022/01/15 09:00:35;;;;;;;12.70;5.95;;;8.40;72.70;;;;;;4774089;30;20095;-85
2022/01/15 09:03:01;;;;;;;13.80;6.68;;;8.50;72.40;;;;;;4759113;30;20168;-84
2022/01/15 09:05:27;;;;;;;11.35;5.95;;;8.50;72.50;;;;;;4756176;30;20040;-83
2022/01/15 09:07:54;;;;;;;13.73;6.57;;;8.50;72.50;;;;;;4770636;30;20042;-83
2022/01/15 09:10:20;;;;;;;11.68;6.38;;;8.50;72.20;;;;;;4755930;30;20116;-83
2022/01/15 09:12:46;;;;;;;10.93;6.28;;;8.50;72.00;;;;;;4755825;30;20058;-83
2022/01/15 09:15:12;;;;;;;15.80;6.60;;;8.50;72.60;;;;;;4755581;30;20043;-83
2022/01/15 09:17:38;;;;;;;13.65;6.22;;;8.50;72.30;;;;;;4755226;30;20040;-82
2022/01/15 09:20:04;;;;;;;13.52;6.07;;;8.50;72.60;;;;;;4749866;30;20047;-83
2022/01/15 09:22:30;;;;;;;16.02;5.93;;;8.60;72.00;;;;;;4746690;30;20056;-83
2022/01/15 09:24:56;;;;;;;12.63;6.03;;;8.50;71.70;;;;;;4746333;30;20048;-83
2022/01/15 09:30:13;;;;;;;13.55;6.32;;;8.40;71.80;;;;;;4748602;30;20044;-84
2022/01/15 09:32:49;;;;;;;11.18;6.32;;;8.40;71.90;;;;;;4744526;30;20233;-84
2022/01/15 09:35:21;;;;;;;14.98;6.40;;;8.40;71.90;;;;;;4746400;30;20259;-83
2022/01/15 09:37:49;;;;;;;13.25;6.45;;;8.60;71.90;;;;;;4746153;30;20040;-84
2022/01/15 09:40:15;;;;;;;13.88;5.93;;;8.50;71.80;;;;;;4746531;30;20114;-83
2022/01/15 09:42:44;;;;;;;16.42;7.38;;;8.60;71.50;;;;;;4731384;30;20040;-83
2022/01/15 09:45:11;;;;;;;12.90;6.60;;;8.70;71.40;;;;;;4745915;30;20060;-83
2022/01/15 09:47:38;;;;;;;13.18;7.63;;;8.70;71.00;;;;;;4745816;30;20230;-84
2022/01/15 09:50:09;;;;;;;15.60;7.38;;;8.60;70.70;;;;;;4745641;30;20031;-83
2022/01/15 09:52:36;;;;;;;12.75;7.47;;;8.60;70.60;;;;;;4746429;30;20036;-84
2022/01/15 09:55:09;;;;;;;15.35;7.70;;;8.60;70.70;;;;;;4731236;30;20055;-84
2022/01/15 09:57:36;;;;;;;15.57;6.97;;;8.70;71.00;;;;;;4745804;30;20060;-83
2022/01/15 10:00:09;;;;;;;11.02;6.57;;;8.80;70.70;;;;;;4731222;30;20116;-84
2022/01/15 10:02:39;;;;;;;15.55;7.43;;;8.70;70.30;;;;;;4761631;30;20036;-84
2022/01/15 10:05:05;;;;;;;27.75;16.77;;;8.90;70.80;;;;;;4731172;30;20032;-84
2022/01/15 10:07:31;;;;;;;15.27;8.97;;;9.00;70.60;;;;;;4745341;30;20040;-84
2022/01/15 10:10:13;;;;;;;14.43;8.15;;;9.00;69.00;;;;;;4729993;30;20051;-84
2022/01/15 10:12:42;;;;;;;15.02;7.78;;;9.00;69.70;;;;;;4754549;30;20028;-85
2022/01/15 10:15:09;;;;;;;18.35;7.05;;;9.10;69.80;;;;;;4723155;30;20024;-84
2022/01/15 10:17:37;;;;;;;16.08;7.70;;;9.20;69.60;;;;;;4759902;30;20104;-84
2022/01/15 10:20:09;;;;;;;11.88;6.60;;;9.20;69.70;;;;;;4725341;30;20044;-84
2022/01/15 10:22:39;;;;;;;17.92;7.43;;;9.40;69.90;;;;;;4755085;30;20055;-84
2022/01/15 10:25:14;;;;;;;16.50;7.55;;;9.40;69.10;;;;;;4745371;30;20051;-84
2022/01/15 10:27:44;;;;;;;13.10;6.70;;;9.50;69.00;;;;;;4743305;30;20085;-83
2022/01/15 10:30:18;;;;;;;12.48;6.07;;;9.40;67.80;;;;;;4761180;30;20036;-83
2022/01/15 10:32:59;;;;;;;13.25;6.57;;;9.30;67.30;;;;;;4759415;30;20037;-84
2022/01/15 10:35:32;;;;;;;11.70;6.35;;;9.20;68.10;;;;;;4745781;30;20146;-84
2022/01/15 10:38:05;;;;;;;13.45;6.25;;;9.20;67.40;;;;;;4761120;30;20051;-83
2022/01/15 10:40:43;;;;;;;12.18;6.60;;;9.30;68.50;;;;;;4754814;30;20052;-84
2022/01/15 10:43:10;;;;;;;12.15;6.25;;;9.40;68.40;;;;;;4755560;30;20028;-84
2022/01/15 10:45:53;;;;;;;14.43;6.32;;;9.50;68.60;;;;;;4741856;30;20339;-84
2022/01/15 10:48:22;;;;;;;12.98;5.93;;;9.60;67.80;;;;;;4757009;30;20028;-84
2022/01/15 10:50:56;;;;;;;10.50;4.90;;;9.60;66.80;;;;;;4754894;30;20107;-84
2022/01/15 10:53:36;;;;;;;10.32;4.78;;;9.60;66.80;;;;;;4757044;30;20103;-84
2022/01/15 10:56:03;;;;;;;8.45;4.80;;;9.70;66.30;;;;;;4758278;30;20221;-84
2022/01/15 10:58:29;;;;;;;10.43;5.10;;;9.70;66.60;;;;;;4758141;30;20024;-82
2022/01/15 11:00:55;;;;;;;8.95;4.20;;;9.60;64.30;;;;;;4744382;30;20055;-82
2022/01/15 11:03:38;;;;;;;7.80;4.28;;;9.60;64.70;;;;;;4737633;30;20240;-82
2022/01/15 11:06:05;;;;;;;7.82;3.97;;;9.60;64.00;;;;;;4757902;30;20110;-82
2022/01/15 11:08:35;;;;;;;10.00;4.68;;;9.60;64.80;;;;;;4743045;30;20407;-82
2022/01/15 11:11:04;;;;;;;16.45;4.82;;;9.60;63.80;;;;;;4747727;30;20111;-83
2022/01/15 11:13:34;;;;;;;9.48;4.90;;;9.60;64.40;;;;;;4759060;30;20105;-82
2022/01/15 11:16:04;;;;;;;12.10;4.30;;;9.70;64.30;;;;;;4758037;30;20028;-82
2022/01/15 11:18:37;;;;;;;8.65;4.15;;;9.60;63.70;;;;;;4762489;30;20061;-83
2022/01/15 11:21:06;;;;;;;6.07;3.80;;;9.60;63.30;;;;;;4762739;30;20059;-82
2022/01/15 11:23:33;;;;;;;7.40;4.13;;;9.50;62.30;;;;;;4762750;30;20036;-82
2022/01/15 11:26:00;;;;;;;;;;;9.40;63.30;;;;;;4733573;30;20048;-82
2022/01/15 11:28:27;;;;;;;;;;;9.40;63.50;;;;;;4762929;30;19920;-82
2022/01/15 11:30:56;;;;;;;10.30;5.25;;;9.40;64.30;;;;;;4747784;30;19918;-83
2022/01/15 11:33:26;;;;;;;8.18;4.30;;;9.40;64.10;;;;;;4747747;30;20090;-82
2022/01/15 11:35:52;;;;;;;9.82;4.70;;;9.40;63.70;;;;;;4761778;30;20059;-83
2022/01/15 11:38:37;;;;;;;12.20;5.10;;;9.40;63.30;;;;;;4733174;30;20044;-83
2022/01/15 11:41:03;;;;;;;11.43;4.25;;;9.30;63.90;;;;;;4757781;30;20051;-83
2022/01/15 11:43:33;;;;;;;9.95;3.80;;;9.30;63.80;;;;;;4741494;30;20040;-82
2022/01/15 11:46:05;;;;;;;8.50;4.20;;;9.30;63.60;;;;;;4756569;30;20056;-83
2022/01/15 11:48:35;;;;;;;14.52;4.78;;;9.10;63.20;;;;;;4745869;30;20085;-82
2022/01/15 11:51:13;;;;;;;11.30;4.57;;;9.00;63.40;;;;;;4747142;30;20032;-82
2022/01/15 11:53:54;;;;;;;10.30;4.47;;;9.00;64.00;;;;;;4747525;30;20045;-83
2022/01/15 11:56:38;;;;;;;12.07;4.22;;;9.00;63.40;;;;;;4762169;30;20043;-82
2022/01/15 11:59:25;;;;;;;12.13;5.10;;;8.90;63.30;;;;;;4762024;30;20036;-82
2022/01/15 12:02:02;;;;;;;11.18;5.68;;;9.00;63.70;;;;;;4747036;30;20085;-84
2022/01/15 12:04:31;;;;;;;12.13;5.25;;;8.90;63.80;;;;;;4761977;30;20112;-83
2022/01/15 12:07:05;;;;;;;9.07;5.50;;;8.90;63.70;;;;;;4763133;30;20032;-83
2022/01/15 12:09:33;;;;;;;12.43;5.00;;;8.80;63.50;;;;;;4747067;30;20067;-83
2022/01/15 12:12:00;;;;;;;11.55;5.47;;;8.80;63.40;;;;;;4746573;30;20043;-83
2022/01/15 12:14:44;;;;;;;;;;;8.80;64.30;;;;;;4733157;30;20055;-83
2022/01/15 12:17:30;;;;;;;9.30;5.50;;;8.80;64.50;;;;;;4761010;30;19960;-83
2022/01/15 12:19:59;;;;;;;11.37;4.60;;;8.80;64.00;;;;;;4759915;30;20032;-83
2022/01/15 12:22:34;;;;;;;16.42;6.03;;;8.70;64.20;;;;;;4760512;30;20043;-83
2022/01/15 12:25:02;;;;;;;13.25;5.00;;;8.80;64.80;;;;;;4757309;30;20044;-84
2022/01/15 12:27:30;;;;;;;9.38;4.45;;;8.90;65.20;;;;;;4756629;30;20036;-83
2022/01/15 12:30:19;;;;;;;8.90;4.43;;;9.00;64.50;;;;;;4757832;30;20044;-83
2022/01/15 12:32:49;;;;;;;11.75;5.38;;;9.00;64.00;;;;;;4750703;30;20043;-83
2022/01/15 12:35:22;;;;;;;8.93;3.95;;;9.00;64.20;;;;;;4760891;30;20062;-83
2022/01/15 12:37:54;;;;;;;10.43;5.00;;;8.90;64.20;;;;;;4757117;30;20033;-83
2022/01/15 12:40:22;;;;;;;13.25;5.10;;;8.80;64.60;;;;;;4729003;30;20042;-84
2022/01/15 12:42:59;;;;;;;16.58;6.50;;;8.80;64.80;;;;;;4744279;30;20053;-83
2022/01/15 12:45:26;;;;;;;14.07;6.10;;;8.80;65.30;;;;;;4731027;30;20036;-83
2022/01/15 12:47:53;;;;;;;12.43;6.07;;;8.80;64.40;;;;;;4731148;30;20123;-83
2022/01/15 12:50:18;;;;;;;15.02;6.28;;;8.80;64.20;;;;;;4713207;30;20272;-84
2022/01/15 12:52:44;;;;;;;17.00;7.25;;;8.70;64.50;;;;;;4740874;30;20044;-83
2022/01/15 12:55:11;;;;;;;17.67;5.95;;;8.70;64.90;;;;;;4728591;30;20040;-84
2022/01/15 12:57:48;;;;;;;14.00;6.38;;;8.70;64.60;;;;;;4757557;30;20048;-84
2022/01/15 13:00:21;;;;;;;15.27;6.20;;;8.60;64.80;;;;;;4756752;30;20040;-84
2022/01/15 13:02:47;;;;;;;15.65;6.85;;;8.60;65.00;;;;;;4754417;30;20036;-83
2022/01/15 13:05:14;;;;;;;16.73;5.97;;;8.60;65.40;;;;;;4721262;30;20045;-83
2022/01/15 13:07:54;;;;;;;11.00;4.57;;;8.60;65.40;;;;;;4743822;30;20244;-82
2022/01/15 13:10:33;;;;;;;11.85;5.50;;;8.60;65.40;;;;;;4749825;30;20036;-83
2022/01/15 13:13:00;;;;;;;16.20;6.20;;;8.70;65.30;;;;;;4745543;30;20327;-83
2022/01/15 13:15:27;;;;;;;18.50;7.38;;;8.50;65.00;;;;;;4760010;30;20036;-83
2022/01/15 13:17:55;;;;;;;15.02;6.28;;;8.50;65.20;;;;;;4760089;30;20035;-83
2022/01/15 13:20:27;;;;;;;;;;;8.40;66.00;;;;;;4748003;30;20073;-83
2022/01/15 13:22:54;;;;;;;10.48;4.18;;;8.40;66.00;;;;;;4758485;30;20207;-83
2022/01/15 13:25:24;;;;;;;14.07;5.38;;;8.30;65.90;;;;;;4745307;30;20077;-83
2022/01/15 13:27:51;;;;;;;12.80;4.82;;;8.40;65.80;;;;;;4730567;30;20292;-83
2022/01/15 13:30:20;;;;;;;;;;;8.30;65.90;;;;;;4745305;30;20047;-84
2022/01/15 13:33:00;;;;;;;20.75;4.85;;;8.30;66.40;;;;;;4753705;30;19918;-83
2022/01/15 13:35:36;;;;;;;10.57;4.85;;;8.30;66.30;;;;;;4739934;30;20084;-82
2022/01/15 13:38:11;;;;;;;8.02;4.18;;;8.30;66.00;;;;;;4744715;30;20042;-83
2022/01/15 13:40:48;;;;;;;9.80;3.92;;;8.20;65.90;;;;;;4753223;30;20082;-83
2022/01/15 13:43:34;;;;;;;9.88;4.28;;;8.20;66.20;;;;;;4742866;30;20232;-83
2022/01/15 13:46:05;;;;;;;;;;;8.20;66.20;;;;;;4745472;30;20055;-83
2022/01/15 13:48:31;;;;;;;9.18;4.22;;;8.20;66.20;;;;;;4759657;30;19914;-82
2022/01/15 13:53:48;;;;;;;9.55;4.70;;;8.10;66.60;;;;;;4745872;30;20240;-83
2022/01/15 13:56:28;;;;;;;8.95;4.38;;;8.10;66.80;;;;;;4739546;30;20040;-83
2022/01/15 13:59:01;;;;;;;11.70;4.30;;;8.20;66.80;;;;;;4739566;30;20044;-82
2022/01/15 14:01:34;;;;;;;10.75;5.05;;;8.20;66.70;;;;;;4751726;30;20036;-84
2022/01/15 14:04:21;;;;;;;13.35;4.80;;;8.20;67.00;;;;;;4751489;30;20083;-82
2022/01/15 14:06:47;;;;;;;16.73;5.45;;;8.10;67.10;;;;;;4752008;30;20111;-82
2022/01/15 14:09:15;;;;;;;8.02;4.35;;;8.10;67.20;;;;;;4769105;30;20044;-83
2022/01/15 14:12:04;;;;;;;9.77;5.15;;;8.00;67.20;;;;;;4756590;30;20040;-83
2022/01/15 14:14:35;;;;;;;11.70;4.85;;;8.00;67.30;;;;;;4713883;30;20097;-83
2022/01/15 14:17:03;;;;;;;8.57;4.85;;;8.00;67.50;;;;;;4683693;30;20057;-83
2022/01/15 14:19:51;;;;;;;11.68;5.00;;;7.90;67.80;;;;;;4696079;30;20350;-82
2022/01/15 14:22:22;;;;;;;12.32;6.03;;;7.90;67.60;;;;;;4695928;30;20076;-82
2022/01/15 14:24:50;;;;;;;12.32;5.45;;;7.90;67.80;;;;;;4681414;30;20115;-82
2022/01/15 14:27:25;;;;;;;14.30;4.72;;;7.80;68.00;;;;;;4681760;30;20095;-82
2022/01/15 14:29:53;;;;;;;12.40;5.00;;;7.80;68.00;;;;;;4710200;30;20295;-83
2022/01/15 14:32:21;;;;;;;14.82;5.88;;;7.80;68.40;;;;;;4676060;30;20041;-82
2022/01/15 14:34:54;;;;;;;11.32;5.93;;;7.70;68.50;;;;;;4680947;30;20238;-83
2022/01/15 14:37:26;;;;;;;11.23;5.70;;;7.70;68.20;;;;;;4681272;30;20044;-83
2022/01/15 14:39:55;;;;;;;13.85;5.75;;;7.60;68.40;;;;;;4695756;30;20052;-83
2022/01/15 14:42:23;;;;;;;14.65;5.97;;;7.60;68.60;;;;;;4681416;30;20052;-83
2022/01/15 14:44:53;;;;;;;10.60;5.25;;;7.60;68.70;;;;;;4695119;30;20215;-82
2022/01/15 14:47:19;;;;;;;14.27;5.47;;;7.50;69.00;;;;;;4681061;30;20422;-82
2022/01/15 14:49:45;;;;;;;18.25;6.25;;;7.50;69.00;;;;;;4695087;30;20049;-82
2022/01/15 14:52:11;;;;;;;9.95;5.30;;;7.40;69.10;;;;;;4718069;30;20037;-82
2022/01/15 14:54:37;;;;;;;14.68;5.03;;;7.30;69.30;;;;;;4746847;30;20114;-84
2022/01/15 14:57:03;;;;;;;12.95;5.18;;;7.30;69.40;;;;;;4744613;30;20028;-83
2022/01/15 14:59:29;;;;;;;14.60;6.43;;;7.20;69.50;;;;;;4761674;30;20039;-83
2022/01/15 15:01:55;;;;;;;17.88;6.75;;;7.20;69.60;;;;;;4733873;30;20115;-83
2022/01/15 15:04:21;;;;;;;10.10;5.38;;;7.20;69.70;;;;;;4733580;30;20051;-82
2022/01/15 15:06:46;;;;;;;14.38;5.22;;;7.20;69.80;;;;;;4748120;30;20244;-82
2022/01/15 15:09:12;;;;;;;12.82;5.72;;;7.10;69.90;;;;;;4745504;30;20053;-82
2022/01/15 15:11:38;;;;;;;10.98;5.22;;;7.10;70.00;;;;;;4731064;30;20271;-83
2022/01/15 15:14:05;;;;;;;14.85;5.65;;;7.10;70.20;;;;;;4762723;30;20265;-82
2022/01/15 15:16:31;;;;;;;21.85;6.97;;;7.10;70.30;;;;;;4732656;30;20032;-82
2022/01/15 15:18:57;;;;;;;15.88;6.35;;;7.00;70.40;;;;;;4763468;30;20036;-82
2022/01/15 15:21:23;;;;;;;14.20;7.20;;;6.90;70.60;;;;;;4747660;30;20056;-82
2022/01/15 15:23:49;;;;;;;16.27;6.40;;;6.90;70.90;;;;;;4747642;30;20036;-82
2022/01/15 15:26:17;;;;;;;17.42;6.50;;;6.80;71.10;;;;;;4747581;30;20051;-82
2022/01/15 15:28:45;;;;;;;15.88;6.95;;;6.80;71.30;;;;;;4747702;30;20048;-82
2022/01/15 15:31:12;;;;;;;15.70;6.63;;;6.80;71.50;;;;;;4747794;30;20074;-83
2022/01/15 15:33:45;;;;;;;13.90;6.43;;;6.70;71.70;;;;;;4747642;30;20270;-82
2022/01/15 15:36:12;;;;;;;16.83;6.78;;;6.70;72.10;;;;;;4762520;30;20103;-82
2022/01/15 15:38:41;;;;;;;;;;;6.60;72.10;;;;;;4748190;30;20047;-82
2022/01/15 15:41:12;;;;;;;19.92;6.15;;;6.50;72.50;;;;;;4747343;30;19971;-82
2022/01/15 15:43:39;;;;;;;17.17;6.85;;;6.40;72.70;;;;;;4747725;30;20047;-82
2022/01/15 15:46:04;;;;;;;;;;;6.40;72.90;;;;;;4747581;30;20106;-82
2022/01/15 15:48:34;;;;;;;15.60;6.70;;;6.30;73.20;;;;;;4762081;30;19913;-82
2022/01/15 15:51:00;;;;;;;20.23;7.63;;;6.20;73.40;;;;;;4762135;30;20035;-82
2022/01/15 15:53:26;;;;;;;17.07;8.13;;;6.20;73.50;;;;;;4747283;30;20033;-82
2022/01/15 15:55:52;;;;;;;19.63;7.15;;;6.10;73.50;;;;;;4747301;30;20285;-82
2022/01/15 15:58:18;;;;;;;15.88;7.88;;;6.00;73.70;;;;;;4747414;30;20059;-82
2022/01/15 16:00:44;;;;;;;17.25;7.78;;;5.90;74.60;;;;;;4728095;30;20332;-82
2022/01/15 16:03:11;;;;;;;14.50;7.13;;;5.80;74.90;;;;;;4729156;30;20495;-82
2022/01/15 16:05:37;;;;;;;19.60;8.55;;;5.80;75.10;;;;;;4746185;30;20051;-82
2022/01/15 16:08:04;;;;;;;19.65;9.15;;;5.70;75.00;;;;;;4733785;30;20093;-82
2022/01/15 16:10:30;;;;;;;24.33;8.93;;;5.60;75.10;;;;;;4735871;30;20040;-82
2022/01/15 16:12:57;;;;;;;19.52;8.65;;;5.50;75.40;;;;;;4750955;30;20052;-82
2022/01/15 16:15:24;;;;;;;21.85;9.23;;;5.40;75.70;;;;;;4717385;30;20064;-82
2022/01/15 16:17:51;;;;;;;23.75;10.25;;;5.30;75.90;;;;;;4760924;30;20059;-82
2022/01/15 16:20:19;;;;;;;21.02;8.45;;;5.20;76.20;;;;;;4751877;30;20056;-82
2022/01/15 16:22:45;;;;;;;26.52;10.93;;;5.10;76.50;;;;;;4741734;30;20036;-84
2022/01/15 16:25:14;;;;;;;20.48;10.45;;;5.00;76.70;;;;;;4745437;30;20068;-83
2022/01/15 16:27:42;;;;;;;22.73;9.35;;;4.80;77.00;;;;;;4760612;30;20274;-81
2022/01/15 16:30:09;;;;;;;21.75;10.10;;;4.80;77.20;;;;;;4759505;30;20036;-84
2022/01/15 16:32:35;;;;;;;19.85;9.05;;;4.60;77.40;;;;;;4740760;30;20048;-84
2022/01/15 16:35:01;;;;;;;19.63;10.05;;;4.60;77.60;;;;;;4729974;30;20096;-84
2022/01/15 16:37:27;;;;;;;23.08;10.98;;;4.50;77.80;;;;;;4740492;30;20294;-84
2022/01/15 16:39:53;;;;;;;24.63;10.68;;;4.40;78.00;;;;;;4731087;30;20505;-84
2022/01/15 16:42:19;;;;;;;20.90;10.57;;;4.30;78.20;;;;;;4741752;30;20071;-83
2022/01/15 16:44:45;;;;;;;21.10;9.65;;;4.20;78.60;;;;;;4741092;30;20110;-84
2022/01/15 16:47:11;;;;;;;21.00;10.48;;;4.10;78.90;;;;;;4752203;30;20356;-84